EXS35JS EGKK-LGKR
Flight info
| Callsign | EXS35JS |
|---|---|
| Flight time | N/A |
| Altitude | 39000 |
| Route | BOGNA UL612 VEULE DCT TEPRI UN491 POGZI DCT GELTA DCT LUVAL DCT SHARA DCT DEVDI DCT RIPUS DCT RESIA DCT LABIN DCT UMSON DCT UVODI DCT AMUGO DCT KOFER DCT RODON DCT LIMJA DCT PITAS |
| Aircraft | A21N/M-SDE2E3FGHIRWXY/LB1 |
Departure
| Time | 2026-04-18 10:49 |
|---|---|
| Airport | London Gatwick Airport (EGKK) |
Arrival
| Time | N/A |
|---|---|
| Airport | Corfu Ioannis Kapodistrias International Airport (LGKR) |
| Time | Latitude | Longitude | Altitude | Speed | Heading |
|---|---|---|---|---|---|
| 2026-04-18 10:02 | 51.15580 | -0.16900 | 209 ft | 0 kts | 167° |
| 2026-04-18 10:41 | 51.15586 | -0.16902 | 209 ft | 2 kts | 167° |
| 2026-04-18 10:41 | 51.15605 | -0.16910 | 210 ft | 3 kts | 167° |
| 2026-04-18 10:41 | 51.15625 | -0.16917 | 212 ft | 3 kts | 167° |
| 2026-04-18 10:41 | 51.15644 | -0.16921 | 217 ft | 3 kts | 189° |
| 2026-04-18 10:42 | 51.15658 | -0.16911 | 211 ft | 3 kts | 236° |
| 2026-04-18 10:42 | 51.15663 | -0.16894 | 217 ft | 2 kts | 258° |
| 2026-04-18 10:42 | 51.15666 | -0.16869 | 212 ft | 3 kts | 258° |
| 2026-04-18 10:42 | 51.15668 | -0.16860 | 213 ft | 1 kts | 258° |
| 2026-04-18 10:45 | 51.15667 | -0.16864 | 213 ft | 2 kts | 258° |
| 2026-04-18 10:45 | 51.15660 | -0.16917 | 211 ft | 7 kts | 258° |
| 2026-04-18 10:45 | 51.15647 | -0.17011 | 212 ft | 10 kts | 258° |
| 2026-04-18 10:45 | 51.15629 | -0.17143 | 216 ft | 14 kts | 257° |
| 2026-04-18 10:46 | 51.15603 | -0.17309 | 212 ft | 17 kts | 257° |
| 2026-04-18 10:46 | 51.15536 | -0.17438 | 209 ft | 17 kts | 173° |
| 2026-04-18 10:46 | 51.15423 | -0.17392 | 211 ft | 10 kts | 167° |
| 2026-04-18 10:46 | 51.15383 | -0.17380 | 217 ft | 7 kts | 169° |
| 2026-04-18 10:47 | 51.15329 | -0.17364 | 209 ft | 10 kts | 169° |
| 2026-04-18 10:47 | 51.15250 | -0.17321 | 211 ft | 14 kts | 147° |
| 2026-04-18 10:47 | 51.15182 | -0.17197 | 214 ft | 17 kts | 91° |
| 2026-04-18 10:47 | 51.15207 | -0.16989 | 209 ft | 20 kts | 78° |
| 2026-04-18 10:48 | 51.15200 | -0.16808 | 218 ft | 18 kts | 139° |
| 2026-04-18 10:48 | 51.15108 | -0.16878 | 212 ft | 19 kts | 263° |
| 2026-04-18 10:48 | 51.15082 | -0.17091 | 213 ft | 21 kts | 258° |
| 2026-04-18 10:48 | 51.15007 | -0.17625 | 214 ft | 81 kts | 257° |
| 2026-04-18 10:49 | 51.14845 | -0.18811 | 208 ft | 136 kts | 257° |
| 2026-04-18 10:49 | 51.14613 | -0.20436 | 384 ft | 156 kts | 259° |
| 2026-04-18 10:49 | 51.14402 | -0.22084 | 1077 ft | 146 kts | 260° |
| 2026-04-18 10:49 | 51.14193 | -0.23641 | 1672 ft | 141 kts | 261° |
| 2026-04-18 10:50 | 51.13955 | -0.25259 | 1943 ft | 160 kts | 260° |
| 2026-04-18 10:50 | 51.13701 | -0.27104 | 2421 ft | 180 kts | 259° |
| 2026-04-18 10:50 | 51.13421 | -0.29130 | 3024 ft | 196 kts | 260° |
| 2026-04-18 10:50 | 51.13108 | -0.31375 | 3567 ft | 217 kts | 259° |
| 2026-04-18 10:51 | 51.12773 | -0.33759 | 4292 ft | 220 kts | 259° |
| 2026-04-18 10:51 | 51.12439 | -0.36138 | 4807 ft | 221 kts | 259° |
| 2026-04-18 10:51 | 51.12089 | -0.38518 | 5003 ft | 221 kts | 255° |
| 2026-04-18 10:51 | 51.11375 | -0.40663 | 5022 ft | 224 kts | 229° |
| 2026-04-18 10:52 | 51.10027 | -0.41984 | 5399 ft | 236 kts | 198° |
| 2026-04-18 10:52 | 51.08368 | -0.42150 | 6258 ft | 244 kts | 179° |
| 2026-04-18 10:52 | 51.06666 | -0.41878 | 7038 ft | 254 kts | 178° |
| 2026-04-18 10:52 | 51.05485 | -0.41687 | 7393 ft | 264 kts | 178° |
| 2026-04-18 10:53 | 51.03595 | -0.41401 | 8091 ft | 274 kts | 179° |
| 2026-04-18 10:53 | 51.01691 | -0.41122 | 8977 ft | 277 kts | 179° |
| 2026-04-18 10:53 | 50.99760 | -0.40858 | 9909 ft | 279 kts | 180° |
| 2026-04-18 10:53 | 50.97809 | -0.40600 | 10804 ft | 281 kts | 180° |
| 2026-04-18 10:54 | 50.95828 | -0.40344 | 11683 ft | 283 kts | 181° |
| 2026-04-18 10:54 | 50.93864 | -0.40094 | 12534 ft | 285 kts | 181° |
| 2026-04-18 10:54 | 50.91869 | -0.39841 | 13389 ft | 288 kts | 182° |
| 2026-04-18 10:54 | 50.89857 | -0.39587 | 14216 ft | 291 kts | 182° |
| 2026-04-18 10:55 | 50.87827 | -0.39330 | 14960 ft | 295 kts | 182° |
| 2026-04-18 10:55 | 50.85771 | -0.39070 | 15692 ft | 298 kts | 182° |
| 2026-04-18 10:55 | 50.83687 | -0.38665 | 16441 ft | 307 kts | 173° |
| 2026-04-18 10:55 | 50.81680 | -0.37302 | 17165 ft | 322 kts | 156° |
| 2026-04-18 10:56 | 50.79789 | -0.35343 | 17904 ft | 328 kts | 153° |
| 2026-04-18 10:56 | 50.77897 | -0.33299 | 18616 ft | 331 kts | 153° |
| 2026-04-18 10:56 | 50.76000 | -0.31269 | 19220 ft | 335 kts | 153° |
| 2026-04-18 10:56 | 50.74061 | -0.29227 | 19837 ft | 338 kts | 154° |
| 2026-04-18 10:57 | 50.72089 | -0.27177 | 20458 ft | 341 kts | 154° |
| 2026-04-18 10:57 | 50.70096 | -0.25106 | 21064 ft | 344 kts | 154° |
| 2026-04-18 10:57 | 50.68073 | -0.22997 | 21481 ft | 355 kts | 154° |
| 2026-04-18 10:57 | 50.65973 | -0.20793 | 21743 ft | 369 kts | 154° |
| 2026-04-18 10:58 | 50.63795 | -0.18514 | 21937 ft | 383 kts | 153° |
| 2026-04-18 10:58 | 50.61549 | -0.16116 | 22252 ft | 394 kts | 153° |
| 2026-04-18 10:58 | 50.59260 | -0.13736 | 22779 ft | 397 kts | 153° |
| 2026-04-18 10:58 | 50.56937 | -0.11329 | 23347 ft | 400 kts | 153° |
| 2026-04-18 10:59 | 50.55574 | -0.09904 | 23670 ft | 402 kts | 153° |
| 2026-04-18 11:00 | 50.53483 | -0.07709 | 24022 ft | 404 kts | 152° |
| 2026-04-18 11:00 | 50.51138 | -0.05261 | 24439 ft | 408 kts | 153° |
| 2026-04-18 11:01 | 50.48824 | -0.02852 | 24917 ft | 410 kts | 153° |
| 2026-04-18 11:01 | 50.46374 | -0.00309 | 25400 ft | 412 kts | 153° |
| 2026-04-18 11:01 | 50.43977 | 0.02180 | 25851 ft | 414 kts | 153° |
| 2026-04-18 11:02 | 50.39146 | 0.07201 | 26700 ft | 419 kts | 154° |
| 2026-04-18 11:02 | 50.36702 | 0.09728 | 27128 ft | 422 kts | 154° |
| 2026-04-18 11:02 | 50.34246 | 0.12266 | 27547 ft | 424 kts | 154° |
| 2026-04-18 11:02 | 50.31778 | 0.14809 | 27948 ft | 427 kts | 154° |
| 2026-04-18 11:03 | 50.29285 | 0.17373 | 28342 ft | 429 kts | 154° |
| 2026-04-18 11:03 | 50.26788 | 0.19940 | 28728 ft | 431 kts | 154° |
| 2026-04-18 11:03 | 50.24279 | 0.22518 | 29112 ft | 434 kts | 154° |
| 2026-04-18 11:03 | 50.21739 | 0.25124 | 29492 ft | 436 kts | 155° |
| 2026-04-18 11:04 | 50.19206 | 0.27721 | 29809 ft | 438 kts | 155° |
| 2026-04-18 11:04 | 50.16644 | 0.30358 | 30185 ft | 440 kts | 156° |
| 2026-04-18 11:04 | 50.14087 | 0.32985 | 30519 ft | 442 kts | 156° |
| 2026-04-18 11:04 | 50.11513 | 0.35629 | 30809 ft | 444 kts | 155° |
| 2026-04-18 11:05 | 50.08916 | 0.38292 | 31101 ft | 446 kts | 155° |
| 2026-04-18 11:05 | 50.06315 | 0.40956 | 31392 ft | 448 kts | 155° |
| 2026-04-18 11:05 | 50.03707 | 0.43623 | 31677 ft | 450 kts | 155° |
| 2026-04-18 11:05 | 50.01075 | 0.46310 | 31942 ft | 452 kts | 155° |
| 2026-04-18 11:06 | 49.98443 | 0.48996 | 32214 ft | 454 kts | 155° |
| 2026-04-18 11:06 | 49.95800 | 0.51691 | 32433 ft | 456 kts | 155° |
| 2026-04-18 11:06 | 49.93181 | 0.54357 | 32690 ft | 458 kts | 155° |
| 2026-04-18 11:06 | 49.90496 | 0.57083 | 32948 ft | 459 kts | 155° |
| 2026-04-18 11:07 | 49.87821 | 0.59798 | 33161 ft | 461 kts | 155° |
| 2026-04-18 11:07 | 49.85198 | 0.62772 | 33394 ft | 471 kts | 147° |
| 2026-04-18 11:07 | 49.82873 | 0.66419 | 33676 ft | 478 kts | 140° |
| 2026-04-18 11:07 | 49.80664 | 0.70271 | 33964 ft | 479 kts | 139° |
| 2026-04-18 11:08 | 49.78459 | 0.74132 | 34230 ft | 478 kts | 139° |
| 2026-04-18 11:08 | 49.76240 | 0.77954 | 34456 ft | 477 kts | 140° |
| 2026-04-18 11:08 | 49.74010 | 0.81750 | 34629 ft | 477 kts | 140° |
| 2026-04-18 11:08 | 49.71770 | 0.85535 | 34824 ft | 477 kts | 140° |
| 2026-04-18 11:09 | 49.69526 | 0.89312 | 35006 ft | 477 kts | 140° |
| 2026-04-18 11:09 | 49.67280 | 0.93082 | 35163 ft | 477 kts | 140° |
| 2026-04-18 11:09 | 49.65033 | 0.96856 | 35346 ft | 476 kts | 140° |
| 2026-04-18 11:09 | 49.62791 | 1.00623 | 35531 ft | 476 kts | 140° |
| 2026-04-18 11:10 | 49.60552 | 1.04381 | 35719 ft | 476 kts | 140° |
| 2026-04-18 11:10 | 49.58311 | 1.08133 | 35886 ft | 475 kts | 139° |
| 2026-04-18 11:10 | 49.56081 | 1.11857 | 36085 ft | 474 kts | 139° |
| 2026-04-18 11:10 | 49.53836 | 1.15601 | 36257 ft | 474 kts | 139° |
| 2026-04-18 11:11 | 49.51636 | 1.19266 | 36399 ft | 473 kts | 139° |
| 2026-04-18 11:11 | 49.49415 | 1.22957 | 36580 ft | 472 kts | 139° |
| 2026-04-18 11:11 | 49.47181 | 1.26663 | 36757 ft | 472 kts | 139° |
| 2026-04-18 11:11 | 49.44948 | 1.30366 | 36930 ft | 471 kts | 139° |
| 2026-04-18 11:12 | 49.42747 | 1.34014 | 37074 ft | 471 kts | 139° |
| 2026-04-18 11:12 | 49.40526 | 1.37689 | 37246 ft | 470 kts | 139° |
| 2026-04-18 11:12 | 49.38306 | 1.41360 | 37422 ft | 469 kts | 139° |
| 2026-04-18 11:12 | 49.36053 | 1.45075 | 37591 ft | 468 kts | 139° |
| 2026-04-18 11:13 | 49.33846 | 1.48719 | 37750 ft | 467 kts | 139° |
| 2026-04-18 11:13 | 49.31655 | 1.52323 | 37897 ft | 466 kts | 139° |
| 2026-04-18 11:13 | 49.29443 | 1.55952 | 38020 ft | 466 kts | 139° |
| 2026-04-18 11:13 | 49.27236 | 1.59572 | 38142 ft | 465 kts | 139° |
| 2026-04-18 11:14 | 49.25025 | 1.63196 | 38257 ft | 464 kts | 139° |
| 2026-04-18 11:14 | 49.22787 | 1.66854 | 38368 ft | 464 kts | 139° |
| 2026-04-18 11:14 | 49.18385 | 1.74032 | 38581 ft | 463 kts | 139° |
| 2026-04-18 11:15 | 49.14006 | 1.81157 | 38770 ft | 462 kts | 139° |
| 2026-04-18 11:15 | 49.11810 | 1.84723 | 38876 ft | 461 kts | 139° |
| 2026-04-18 11:15 | 49.09615 | 1.88287 | 38975 ft | 461 kts | 139° |
| 2026-04-18 11:16 | 49.05214 | 1.95416 | 39097 ft | 461 kts | 139° |
| 2026-04-18 11:16 | 49.00799 | 2.02528 | 39233 ft | 461 kts | 139° |
| 2026-04-18 11:17 | 48.96372 | 2.09621 | 39247 ft | 463 kts | 139° |
| 2026-04-18 11:17 | 48.91947 | 2.16716 | 39232 ft | 463 kts | 139° |
| 2026-04-18 11:18 | 48.87508 | 2.23843 | 39231 ft | 464 kts | 139° |
| 2026-04-18 11:18 | 48.83068 | 2.30958 | 39237 ft | 464 kts | 139° |
| 2026-04-18 11:19 | 48.78594 | 2.38082 | 39202 ft | 464 kts | 139° |
| 2026-04-18 11:19 | 48.74816 | 2.44075 | 39191 ft | 463 kts | 139° |
| 2026-04-18 11:20 | 48.70313 | 2.51202 | 39207 ft | 465 kts | 139° |
| 2026-04-18 11:20 | 48.65890 | 2.58197 | 39209 ft | 462 kts | 139° |
| 2026-04-18 11:21 | 48.61507 | 2.65104 | 39186 ft | 466 kts | 139° |
| 2026-04-18 11:21 | 48.57365 | 2.72631 | 39185 ft | 476 kts | 125° |
| 2026-04-18 11:22 | 48.55896 | 2.77162 | 39194 ft | 483 kts | 114° |
| 2026-04-18 11:22 | 48.55017 | 2.82071 | 39203 ft | 489 kts | 102° |
| 2026-04-18 11:22 | 48.54562 | 2.92324 | 39207 ft | 488 kts | 94° |
| 2026-04-18 11:23 | 48.54271 | 3.02596 | 39207 ft | 490 kts | 95° |
| 2026-04-18 11:23 | 48.53920 | 3.12806 | 39206 ft | 488 kts | 95° |
| 2026-04-18 11:24 | 48.53564 | 3.23126 | 39206 ft | 488 kts | 95° |
| 2026-04-18 11:24 | 48.53204 | 3.33235 | 39208 ft | 489 kts | 95° |
| 2026-04-18 11:25 | 48.52839 | 3.43241 | 39206 ft | 487 kts | 95° |
| 2026-04-18 11:25 | 48.52442 | 3.53691 | 39205 ft | 489 kts | 95° |
| 2026-04-18 11:26 | 48.52046 | 3.63915 | 39212 ft | 486 kts | 95° |
| 2026-04-18 11:26 | 48.51620 | 3.74133 | 39213 ft | 488 kts | 95° |
| 2026-04-18 11:27 | 48.51215 | 3.84334 | 39219 ft | 488 kts | 95° |
| 2026-04-18 11:27 | 48.50798 | 3.94538 | 39224 ft | 487 kts | 95° |
| 2026-04-18 11:28 | 48.50275 | 4.03002 | 39216 ft | 485 kts | 104° |
| 2026-04-18 11:28 | 48.48595 | 4.12696 | 39242 ft | 481 kts | 109° |
| 2026-04-18 11:29 | 48.46889 | 4.21903 | 39232 ft | 483 kts | 108° |
| 2026-04-18 11:29 | 48.45202 | 4.31068 | 39217 ft | 482 kts | 108° |
| 2026-04-18 11:30 | 48.43404 | 4.40859 | 39218 ft | 482 kts | 108° |
| 2026-04-18 11:30 | 48.41609 | 4.50581 | 39221 ft | 481 kts | 108° |
| 2026-04-18 11:31 | 48.39800 | 4.60310 | 39219 ft | 483 kts | 108° |
| 2026-04-18 11:31 | 48.37988 | 4.70014 | 39214 ft | 481 kts | 108° |
| 2026-04-18 11:32 | 48.36194 | 4.79528 | 39216 ft | 482 kts | 108° |
| 2026-04-18 11:32 | 48.34382 | 4.89080 | 39229 ft | 482 kts | 108° |
| 2026-04-18 11:33 | 48.32529 | 4.98880 | 39215 ft | 481 kts | 108° |
| 2026-04-18 11:33 | 48.30686 | 5.08540 | 39222 ft | 481 kts | 108° |
| 2026-04-18 11:34 | 48.28831 | 5.18182 | 39214 ft | 481 kts | 109° |
| 2026-04-18 11:34 | 48.26892 | 5.27797 | 39211 ft | 479 kts | 109° |
| 2026-04-18 11:35 | 48.24960 | 5.37360 | 39215 ft | 479 kts | 109° |
| 2026-04-18 11:35 | 48.23013 | 5.46966 | 39215 ft | 481 kts | 109° |
| 2026-04-18 11:36 | 48.21068 | 5.56521 | 39198 ft | 478 kts | 109° |
| 2026-04-18 11:36 | 48.19116 | 5.66086 | 39218 ft | 477 kts | 109° |
| 2026-04-18 11:37 | 48.17161 | 5.75603 | 39225 ft | 478 kts | 109° |
| 2026-04-18 11:37 | 48.15205 | 5.85100 | 39204 ft | 477 kts | 109° |
| 2026-04-18 11:38 | 48.13230 | 5.94656 | 39206 ft | 478 kts | 110° |
| 2026-04-18 11:38 | 48.11250 | 6.04147 | 39199 ft | 478 kts | 110° |
| 2026-04-18 11:39 | 48.09265 | 6.13614 | 39205 ft | 478 kts | 110° |
| 2026-04-18 11:39 | 48.07271 | 6.23076 | 39207 ft | 478 kts | 110° |
| 2026-04-18 11:40 | 48.05265 | 6.32617 | 39208 ft | 478 kts | 110° |
| 2026-04-18 11:40 | 48.03257 | 6.42083 | 39198 ft | 478 kts | 110° |
| 2026-04-18 11:41 | 48.01221 | 6.51530 | 39206 ft | 476 kts | 110° |
| 2026-04-18 11:41 | 47.99208 | 6.60964 | 39208 ft | 478 kts | 110° |
| 2026-04-18 11:42 | 47.97073 | 6.70315 | 39205 ft | 475 kts | 114° |
| 2026-04-18 11:42 | 47.94594 | 6.79486 | 39190 ft | 475 kts | 114° |
| 2026-04-18 11:43 | 47.92129 | 6.88538 | 39192 ft | 474 kts | 114° |
| 2026-04-18 11:43 | 47.89634 | 6.97701 | 39190 ft | 473 kts | 114° |
| 2026-04-18 11:44 | 47.87150 | 7.06797 | 39188 ft | 473 kts | 114° |
| 2026-04-18 11:44 | 47.84663 | 7.15871 | 39181 ft | 474 kts | 115° |
| 2026-04-18 11:45 | 47.82168 | 7.24933 | 39182 ft | 472 kts | 114° |
| 2026-04-18 11:45 | 47.79665 | 7.33978 | 39184 ft | 472 kts | 114° |
| 2026-04-18 11:46 | 47.77161 | 7.42998 | 39177 ft | 472 kts | 114° |
| 2026-04-18 11:46 | 47.74639 | 7.52001 | 39194 ft | 471 kts | 116° |
| 2026-04-18 11:47 | 47.71232 | 7.60290 | 39195 ft | 468 kts | 129° |
| 2026-04-18 11:47 | 47.67344 | 7.68020 | 39197 ft | 465 kts | 129° |
| 2026-04-18 11:48 | 47.63478 | 7.75739 | 39201 ft | 467 kts | 129° |
| 2026-04-18 11:48 | 47.59623 | 7.83471 | 39198 ft | 466 kts | 129° |
| 2026-04-18 11:49 | 47.55775 | 7.91169 | 39199 ft | 466 kts | 129° |
| 2026-04-18 11:49 | 47.51906 | 7.98887 | 39186 ft | 466 kts | 129° |
| 2026-04-18 11:50 | 47.48050 | 8.06565 | 39202 ft | 467 kts | 129° |
| 2026-04-18 11:50 | 47.44160 | 8.14279 | 39198 ft | 467 kts | 129° |
| 2026-04-18 11:51 | 47.40246 | 8.22026 | 39196 ft | 466 kts | 129° |
| 2026-04-18 11:51 | 47.36388 | 8.29636 | 39196 ft | 467 kts | 129° |
| 2026-04-18 11:52 | 47.32526 | 8.37232 | 39195 ft | 466 kts | 129° |
| 2026-04-18 11:52 | 47.28588 | 8.44951 | 39207 ft | 466 kts | 129° |
| 2026-04-18 11:53 | 47.24709 | 8.52639 | 39207 ft | 467 kts | 128° |
| 2026-04-18 11:53 | 47.20897 | 8.60358 | 39208 ft | 467 kts | 128° |
| 2026-04-18 11:54 | 47.17739 | 8.66734 | 39206 ft | 466 kts | 128° |
| 2026-04-18 11:54 | 47.14701 | 8.72847 | 39208 ft | 469 kts | 128° |
| 2026-04-18 11:55 | 47.10860 | 8.80565 | 39218 ft | 469 kts | 128° |
| 2026-04-18 11:55 | 47.07055 | 8.88204 | 39223 ft | 468 kts | 128° |
| 2026-04-18 11:56 | 47.03204 | 8.95913 | 39219 ft | 468 kts | 128° |
| 2026-04-18 11:56 | 46.99329 | 9.03637 | 39215 ft | 470 kts | 128° |
| 2026-04-18 11:57 | 46.95455 | 9.11342 | 39217 ft | 469 kts | 128° |
| 2026-04-18 11:57 | 46.91563 | 9.19052 | 39210 ft | 471 kts | 128° |
| 2026-04-18 11:58 | 46.87668 | 9.26747 | 39199 ft | 470 kts | 128° |
| 2026-04-18 11:58 | 46.83768 | 9.34422 | 39205 ft | 471 kts | 128° |
| 2026-04-18 11:59 | 46.79869 | 9.42097 | 39215 ft | 470 kts | 128° |
| 2026-04-18 11:59 | 46.75967 | 9.49752 | 39219 ft | 469 kts | 128° |